sensor_id;sensor_type;location;lat;lon;timestamp;temperature;humidity
15625;DHT22;7912;51.376;6.126;2022-12-11T16:11:48;0.70;99.90
15625;DHT22;7912;51.376;6.126;2022-12-11T16:14:15;0.40;99.90
15625;DHT22;7912;51.376;6.126;2022-12-11T16:16:45;0.60;99.90
15625;DHT22;7912;51.376;6.126;2022-12-11T16:19:13;0.90;99.90
15625;DHT22;7912;51.376;6.126;2022-12-11T16:21:40;1.10;99.90
15625;DHT22;7912;51.376;6.126;2022-12-11T16:24:07;1.40;99.90
15625;DHT22;7912;51.376;6.126;2022-12-11T16:26:35;1.60;99.90
15625;DHT22;7912;51.376;6.126;2022-12-11T16:29:05;1.90;99.90
15625;DHT22;7912;51.376;6.126;2022-12-11T16:31:35;2.10;99.90
15625;DHT22;7912;51.376;6.126;2022-12-11T16:34:03;2.30;99.90
15625;DHT22;7912;51.376;6.126;2022-12-11T16:36:30;2.40;99.90
15625;DHT22;7912;51.376;6.126;2022-12-11T16:38:57;2.60;99.90
15625;DHT22;7912;51.376;6.126;2022-12-11T16:41:24;2.70;99.90
15625;DHT22;7912;51.376;6.126;2022-12-11T16:43:52;2.80;99.90
15625;DHT22;7912;51.376;6.126;2022-12-11T16:46:21;3.00;99.90
15625;DHT22;7912;51.376;6.126;2022-12-11T16:48:50;3.10;99.90
15625;DHT22;7912;51.376;6.126;2022-12-11T16:51:17;3.20;99.90
15625;DHT22;7912;51.376;6.126;2022-12-11T16:53:44;3.20;99.90
15625;DHT22;7912;51.376;6.126;2022-12-11T16:56:12;3.40;99.90
15625;DHT22;7912;51.376;6.126;2022-12-11T16:58:40;3.40;99.90
15625;DHT22;7912;51.376;6.126;2022-12-11T17:01:11;3.50;99.90
15625;DHT22;7912;51.376;6.126;2022-12-11T17:03:41;3.50;99.90
15625;DHT22;7912;51.376;6.126;2022-12-11T17:06:12;3.60;99.90
15625;DHT22;7912;51.376;6.126;2022-12-11T17:08:42;3.60;99.90
15625;DHT22;7912;51.376;6.126;2022-12-11T17:11:15;3.70;99.90
15625;DHT22;7912;51.376;6.126;2022-12-11T17:13:44;3.70;99.90
15625;DHT22;7912;51.376;6.126;2022-12-11T17:16:13;3.70;99.90
15625;DHT22;7912;51.376;6.126;2022-12-11T17:18:42;3.80;99.90
15625;DHT22;7912;51.376;6.126;2022-12-11T17:21:13;3.80;99.90
15625;DHT22;7912;51.376;6.126;2022-12-11T17:23:45;3.80;99.90
15625;DHT22;7912;51.376;6.126;2022-12-11T17:26:13;3.90;99.90
15625;DHT22;7912;51.376;6.126;2022-12-11T17:28:42;3.90;99.90
15625;DHT22;7912;51.376;6.126;2022-12-11T17:31:15;3.90;99.90
15625;DHT22;7912;51.376;6.126;2022-12-11T17:33:44;3.90;99.90
15625;DHT22;7912;51.376;6.126;2022-12-11T17:36:16;3.90;99.90
15625;DHT22;7912;51.376;6.126;2022-12-11T17:38:46;4.00;99.90
15625;DHT22;7912;51.376;6.126;2022-12-11T17:41:14;4.00;99.90
15625;DHT22;7912;51.376;6.126;2022-12-11T17:43:47;4.00;99.90
15625;DHT22;7912;51.376;6.126;2022-12-11T17:46:16;4.00;99.90
15625;DHT22;7912;51.376;6.126;2022-12-11T17:48:44;4.10;99.90
15625;DHT22;7912;51.376;6.126;2022-12-11T17:51:14;4.10;99.90
15625;DHT22;7912;51.376;6.126;2022-12-11T17:53:46;4.10;99.90
15625;DHT22;7912;51.376;6.126;2022-12-11T17:56:17;4.10;99.90
15625;DHT22;7912;51.376;6.126;2022-12-11T17:58:44;4.10;99.90
15625;DHT22;7912;51.376;6.126;2022-12-11T18:01:12;4.20;99.90
15625;DHT22;7912;51.376;6.126;2022-12-11T18:03:40;4.20;99.90
15625;DHT22;7912;51.376;6.126;2022-12-11T18:06:11;4.20;99.90
15625;DHT22;7912;51.376;6.126;2022-12-11T18:08:41;4.20;99.90
15625;DHT22;7912;51.376;6.126;2022-12-11T18:11:20;4.20;99.90
15625;DHT22;7912;51.376;6.126;2022-12-11T18:13:49;4.20;99.90
15625;DHT22;7912;51.376;6.126;2022-12-11T18:18:48;4.20;99.90
15625;DHT22;7912;51.376;6.126;2022-12-11T18:21:19;4.20;99.90
15625;DHT22;7912;51.376;6.126;2022-12-11T18:23:49;4.30;99.90
15625;DHT22;7912;51.376;6.126;2022-12-11T18:26:18;4.20;99.90
15625;DHT22;7912;51.376;6.126;2022-12-11T18:28:46;4.30;99.90
15625;DHT22;7912;51.376;6.126;2022-12-11T18:31:15;4.30;99.90
15625;DHT22;7912;51.376;6.126;2022-12-11T18:33:44;4.30;99.90
15625;DHT22;7912;51.376;6.126;2022-12-11T18:36:14;4.30;99.90
15625;DHT22;7912;51.376;6.126;2022-12-11T18:38:43;4.30;99.90
15625;DHT22;7912;51.376;6.126;2022-12-11T18:41:11;4.30;99.90
15625;DHT22;7912;51.376;6.126;2022-12-11T18:43:39;4.30;99.90
15625;DHT22;7912;51.376;6.126;2022-12-11T18:46:08;4.30;99.90
15625;DHT22;7912;51.376;6.126;2022-12-11T18:48:38;4.30;99.90
15625;DHT22;7912;51.376;6.126;2022-12-11T18:51:08;4.30;99.90
15625;DHT22;7912;51.376;6.126;2022-12-11T18:53:38;4.30;99.90
15625;DHT22;7912;51.376;6.126;2022-12-11T18:56:08;4.30;99.90
15625;DHT22;7912;51.376;6.126;2022-12-11T18:58:43;4.30;99.90
15625;DHT22;7912;51.376;6.126;2022-12-11T19:01:22;4.30;99.90
15625;DHT22;7912;51.376;6.126;2022-12-11T19:03:55;4.30;99.90
15625;DHT22;7912;51.376;6.126;2022-12-11T19:06:31;4.30;99.90
15625;DHT22;7912;51.376;6.126;2022-12-11T19:09:03;4.30;99.90
15625;DHT22;7912;51.376;6.126;2022-12-11T19:11:37;4.30;99.90
15625;DHT22;7912;51.376;6.126;2022-12-11T19:14:06;4.30;99.90
15625;DHT22;7912;51.376;6.126;2022-12-11T19:16:40;4.30;99.90
15625;DHT22;7912;51.376;6.126;2022-12-11T19:19:12;4.30;99.90
15625;DHT22;7912;51.376;6.126;2022-12-11T19:21:42;4.40;99.90
15625;DHT22;7912;51.376;6.126;2022-12-11T19:24:13;4.40;99.90
15625;DHT22;7912;51.376;6.126;2022-12-11T19:26:49;4.40;99.90
15625;DHT22;7912;51.376;6.126;2022-12-11T19:29:23;4.40;99.90
15625;DHT22;7912;51.376;6.126;2022-12-11T19:31:53;4.40;99.90
15625;DHT22;7912;51.376;6.126;2022-12-11T19:34:21;4.40;99.90
15625;DHT22;7912;51.376;6.126;2022-12-11T19:36:49;4.40;99.90
15625;DHT22;7912;51.376;6.126;2022-12-11T19:39:17;4.40;99.90
15625;DHT22;7912;51.376;6.126;2022-12-11T19:41:45;4.40;99.90
15625;DHT22;7912;51.376;6.126;2022-12-11T19:44:13;4.40;99.90
15625;DHT22;7912;51.376;6.126;2022-12-11T19:46:41;4.40;99.90
15625;DHT22;7912;51.376;6.126;2022-12-11T19:49:10;4.40;99.90
15625;DHT22;7912;51.376;6.126;2022-12-11T19:51:40;4.50;99.90
15625;DHT22;7912;51.376;6.126;2022-12-11T19:54:13;4.50;99.90
15625;DHT22;7912;51.376;6.126;2022-12-11T19:56:43;4.50;99.90
15625;DHT22;7912;51.376;6.126;2022-12-11T19:59:13;4.50;99.90
15625;DHT22;7912;51.376;6.126;2022-12-11T20:01:45;4.50;99.90
15625;DHT22;7912;51.376;6.126;2022-12-11T20:04:15;4.50;99.90
15625;DHT22;7912;51.376;6.126;2022-12-11T20:06:44;4.50;99.90
15625;DHT22;7912;51.376;6.126;2022-12-11T20:09:13;4.50;99.90
15625;DHT22;7912;51.376;6.126;2022-12-11T20:11:42;4.40;99.90
15625;DHT22;7912;51.376;6.126;2022-12-11T20:14:23;4.50;99.90
15625;DHT22;7912;51.376;6.126;2022-12-11T20:16:52;4.40;99.90
15625;DHT22;7912;51.376;6.126;2022-12-11T20:19:40;4.40;99.90
15625;DHT22;7912;51.376;6.126;2022-12-11T20:22:08;4.40;99.90
15625;DHT22;7912;51.376;6.126;2022-12-11T20:24:36;4.40;99.90
15625;DHT22;7912;51.376;6.126;2022-12-11T20:27:03;4.40;99.90
15625;DHT22;7912;51.376;6.126;2022-12-11T20:29:31;4.30;99.90
15625;DHT22;7912;51.376;6.126;2022-12-11T20:31:58;4.30;99.90
15625;DHT22;7912;51.376;6.126;2022-12-11T20:34:26;4.30;99.90
15625;DHT22;7912;51.376;6.126;2022-12-11T20:36:56;4.30;99.90
15625;DHT22;7912;51.376;6.126;2022-12-11T20:39:26;4.30;99.90
15625;DHT22;7912;51.376;6.126;2022-12-11T20:41:53;4.30;99.90
15625;DHT22;7912;51.376;6.126;2022-12-11T20:44:21;4.30;99.90
15625;DHT22;7912;51.376;6.126;2022-12-11T20:46:50;4.30;99.90
15625;DHT22;7912;51.376;6.126;2022-12-11T20:49:18;4.30;99.90
15625;DHT22;7912;51.376;6.126;2022-12-11T20:51:45;4.30;99.90
15625;DHT22;7912;51.376;6.126;2022-12-11T20:54:13;4.30;99.90
15625;DHT22;7912;51.376;6.126;2022-12-11T20:56:41;4.20;99.90
15625;DHT22;7912;51.376;6.126;2022-12-11T20:59:09;4.20;99.90
15625;DHT22;7912;51.376;6.126;2022-12-11T21:01:39;4.20;99.90
15625;DHT22;7912;51.376;6.126;2022-12-11T21:04:07;4.20;99.90
15625;DHT22;7912;51.376;6.126;2022-12-11T21:06:36;4.20;99.90
15625;DHT22;7912;51.376;6.126;2022-12-11T21:09:15;4.20;99.90
15625;DHT22;7912;51.376;6.126;2022-12-11T21:15:46;4.20;99.90
15625;DHT22;7912;51.376;6.126;2022-12-11T21:18:18;4.20;99.90
15625;DHT22;7912;51.376;6.126;2022-12-11T21:20:46;4.10;99.90
15625;DHT22;7912;51.376;6.126;2022-12-11T21:23:13;4.20;99.90
15625;DHT22;7912;51.376;6.126;2022-12-11T21:25:40;4.20;99.90
15625;DHT22;7912;51.376;6.126;2022-12-11T21:28:07;4.10;99.90
15625;DHT22;7912;51.376;6.126;2022-12-11T21:30:37;4.20;99.90
15625;DHT22;7912;51.376;6.126;2022-12-11T21:33:07;4.20;99.90
15625;DHT22;7912;51.376;6.126;2022-12-11T21:35:34;4.20;99.90
15625;DHT22;7912;51.376;6.126;2022-12-11T21:38:02;4.20;99.90
15625;DHT22;7912;51.376;6.126;2022-12-11T21:40:32;4.20;99.90
15625;DHT22;7912;51.376;6.126;2022-12-11T21:43:00;4.20;99.90
15625;DHT22;7912;51.376;6.126;2022-12-11T21:45:27;4.20;99.90
15625;DHT22;7912;51.376;6.126;2022-12-11T21:48:14;4.20;99.90
15625;DHT22;7912;51.376;6.126;2022-12-11T21:50:42;4.10;99.90
15625;DHT22;7912;51.376;6.126;2022-12-11T21:53:09;4.10;99.90
15625;DHT22;7912;51.376;6.126;2022-12-11T21:55:39;4.10;99.90
15625;DHT22;7912;51.376;6.126;2022-12-11T21:58:07;4.10;99.90
15625;DHT22;7912;51.376;6.126;2022-12-11T22:00:37;4.10;99.90
15625;DHT22;7912;51.376;6.126;2022-12-11T22:03:05;4.10;99.90
15625;DHT22;7912;51.376;6.126;2022-12-11T22:05:32;4.00;99.90
15625;DHT22;7912;51.376;6.126;2022-12-11T22:07:59;4.00;99.90
15625;DHT22;7912;51.376;6.126;2022-12-11T22:10:27;4.10;99.90
15625;DHT22;7912;51.376;6.126;2022-12-11T22:12:55;4.10;99.90
15625;DHT22;7912;51.376;6.126;2022-12-11T22:15:22;4.00;99.90
15625;DHT22;7912;51.376;6.126;2022-12-11T22:17:49;4.10;99.90
15625;DHT22;7912;51.376;6.126;2022-12-11T22:20:16;4.10;99.90
15625;DHT22;7912;51.376;6.126;2022-12-11T22:22:44;4.00;99.90
15625;DHT22;7912;51.376;6.126;2022-12-11T22:25:12;4.00;99.90
15625;DHT22;7912;51.376;6.126;2022-12-11T22:27:40;4.00;99.90
15625;DHT22;7912;51.376;6.126;2022-12-11T22:30:07;4.00;99.90
15625;DHT22;7912;51.376;6.126;2022-12-11T22:32:35;4.00;99.90
15625;DHT22;7912;51.376;6.126;2022-12-11T22:35:03;4.00;99.90
15625;DHT22;7912;51.376;6.126;2022-12-11T22:37:30;4.00;99.90
15625;DHT22;7912;51.376;6.126;2022-12-11T22:40:01;4.00;99.90
15625;DHT22;7912;51.376;6.126;2022-12-11T22:42:28;4.00;99.90
15625;DHT22;7912;51.376;6.126;2022-12-11T22:44:55;4.00;99.90
15625;DHT22;7912;51.376;6.126;2022-12-11T22:47:23;4.00;99.90
15625;DHT22;7912;51.376;6.126;2022-12-11T22:49:50;4.00;99.90
15625;DHT22;7912;51.376;6.126;2022-12-11T22:52:18;4.00;99.90
15625;DHT22;7912;51.376;6.126;2022-12-11T22:54:45;4.00;99.90
15625;DHT22;7912;51.376;6.126;2022-12-11T22:57:12;4.00;99.90
15625;DHT22;7912;51.376;6.126;2022-12-11T22:59:40;4.00;99.90
15625;DHT22;7912;51.376;6.126;2022-12-11T23:02:07;4.00;99.90
15625;DHT22;7912;51.376;6.126;2022-12-11T23:04:35;4.00;99.90
15625;DHT22;7912;51.376;6.126;2022-12-11T23:07:02;4.00;99.90
15625;DHT22;7912;51.376;6.126;2022-12-11T23:09:30;4.00;99.90
15625;DHT22;7912;51.376;6.126;2022-12-11T23:11:57;4.00;99.90
15625;DHT22;7912;51.376;6.126;2022-12-11T23:14:25;4.00;99.90
15625;DHT22;7912;51.376;6.126;2022-12-11T23:16:53;3.90;99.90
15625;DHT22;7912;51.376;6.126;2022-12-11T23:19:21;3.90;99.90
15625;DHT22;7912;51.376;6.126;2022-12-11T23:21:51;3.90;99.90
15625;DHT22;7912;51.376;6.126;2022-12-11T23:24:19;3.90;99.90
15625;DHT22;7912;51.376;6.126;2022-12-11T23:26:46;3.90;99.90
15625;DHT22;7912;51.376;6.126;2022-12-11T23:29:14;3.90;99.90
15625;DHT22;7912;51.376;6.126;2022-12-11T23:31:44;3.90;99.90
15625;DHT22;7912;51.376;6.126;2022-12-11T23:34:11;3.90;99.90
15625;DHT22;7912;51.376;6.126;2022-12-11T23:36:38;3.90;99.90
15625;DHT22;7912;51.376;6.126;2022-12-11T23:39:06;3.90;99.90
15625;DHT22;7912;51.376;6.126;2022-12-11T23:41:33;3.90;99.90
15625;DHT22;7912;51.376;6.126;2022-12-11T23:44:00;3.90;99.90
15625;DHT22;7912;51.376;6.126;2022-12-11T23:46:27;3.80;99.90
15625;DHT22;7912;51.376;6.126;2022-12-11T23:48:55;3.80;99.90
15625;DHT22;7912;51.376;6.126;2022-12-11T23:51:23;3.80;99.90
15625;DHT22;7912;51.376;6.126;2022-12-11T23:53:51;3.80;99.90
15625;DHT22;7912;51.376;6.126;2022-12-11T23:56:24;3.70;99.90
15625;DHT22;7912;51.376;6.126;2022-12-11T23:58:53;3.70;99.90
